Time;durP1;ratioP1;P1;durP2;ratioP2;P2;SDS_P1;SDS_P2;PMS_P1;PMS_P2;Temp;Humidity;BMP_temperature;BMP_pressure;BME280_temperature;BME280_humidity;BME280_pressure;Samples;Min_cycle;Max_cycle;Signal;HPM_P1;HPM_P2
2022/01/27 00:00:08;;;;;;;39.00;21.13;;;5.70;99.90;;;;;;4972051;28;20222;-61
2022/01/27 00:05:21;;;;;;;41.10;20.63;;;5.70;99.90;;;;;;4962492;28;20291;-61
2022/01/27 00:08:07;;;;;;;43.60;22.00;;;5.70;99.90;;;;;;4977278;28;20228;-61
2022/01/27 00:13:32;;;;;;;44.07;22.07;;;5.70;99.90;;;;;;4970476;28;20199;-61
2022/01/27 00:16:13;;;;;;;38.73;20.73;;;5.70;99.90;;;;;;4960721;28;20267;-60
2022/01/27 00:18:41;;;;;;;39.70;21.33;;;5.70;99.90;;;;;;4955405;28;20211;-61
2022/01/27 00:21:08;;;;;;;39.03;20.37;;;5.70;99.90;;;;;;4966315;28;20683;-60
2022/01/27 00:23:36;;;;;;;36.50;18.73;;;5.70;99.90;;;;;;4976711;28;20199;-61
2022/01/27 00:26:05;;;;;;;36.00;19.97;;;5.70;99.90;;;;;;4964159;28;20227;-61
2022/01/27 00:28:32;;;;;;;37.73;20.10;;;5.70;99.90;;;;;;4961832;28;20197;-60
2022/01/27 00:30:59;;;;;;;37.53;19.53;;;5.70;99.90;;;;;;4978102;28;20209;-61
2022/01/27 00:33:26;;;;;;;39.77;19.47;;;5.70;99.90;;;;;;4981392;28;20295;-61
2022/01/27 00:35:53;;;;;;;38.37;18.97;;;5.70;99.90;;;;;;4941482;28;20245;-60
2022/01/27 00:38:20;;;;;;;33.67;18.53;;;5.70;99.90;;;;;;4966090;28;20200;-61
2022/01/27 00:40:47;;;;;;;33.37;18.60;;;5.80;99.90;;;;;;4970492;28;20659;-61
2022/01/27 00:43:16;;;;;;;37.90;19.73;;;5.70;99.90;;;;;;4969850;28;20288;-61
2022/01/27 00:45:43;;;;;;;34.67;18.60;;;5.70;99.90;;;;;;4975396;28;20206;-61
2022/01/27 00:48:10;;;;;;;38.70;18.97;;;5.70;99.90;;;;;;5005711;28;20212;-61
2022/01/27 00:50:38;;;;;;;33.33;17.97;;;5.70;99.90;;;;;;4948120;28;20219;-61
2022/01/27 00:53:19;;;;;;;39.47;19.93;;;5.70;99.90;;;;;;4979011;28;20211;-60
2022/01/27 00:55:47;;;;;;;31.73;17.97;;;5.70;99.90;;;;;;4963266;28;20678;-61
2022/01/27 00:58:27;;;;;;;32.37;18.70;;;5.70;99.90;;;;;;4971161;28;20730;-61
2022/01/27 01:01:23;;;;;;;32.23;18.33;;;5.70;99.90;;;;;;4956644;28;20220;-62
2022/01/27 01:03:54;;;;;;;37.70;19.30;;;5.70;99.90;;;;;;4956118;28;20217;-60
2022/01/27 01:06:33;;;;;;;34.27;18.50;;;5.70;99.90;;;;;;4950587;28;20217;-61
2022/01/27 01:12:12;;;;;;;35.60;19.17;;;5.60;99.90;;;;;;4966278;28;20349;-61
2022/01/27 01:14:44;;;;;;;37.00;19.10;;;5.70;99.90;;;;;;4973002;28;20704;-61
2022/01/27 01:17:29;;;;;;;35.90;19.00;;;5.70;99.90;;;;;;4966840;28;20314;-60
2022/01/27 01:20:21;;;;;;;36.27;19.20;;;5.60;99.90;;;;;;4942139;28;20348;-61
2022/01/27 01:31:14;;;;;;;31.03;18.27;;;5.60;99.90;;;;;;4963256;28;20710;-60
2022/01/27 01:33:45;;;;;;;35.60;18.60;;;5.60;99.90;;;;;;4979707;28;20203;-60
2022/01/27 01:36:26;;;;;;;37.10;19.03;;;5.60;99.90;;;;;;4943325;28;20256;-60
2022/01/27 01:38:53;;;;;;;41.03;19.53;;;5.60;99.90;;;;;;4959726;28;20290;-60
2022/01/27 01:41:20;;;;;;;45.50;20.13;;;5.60;99.90;;;;;;4973181;28;20203;-61
2022/01/27 01:43:47;;;;;;;39.40;20.13;;;5.60;99.90;;;;;;4959163;28;20213;-60
2022/01/27 01:46:14;;;;;;;36.93;19.33;;;5.60;99.90;;;;;;4967172;28;20709;-60
2022/01/27 01:48:43;;;;;;;39.83;18.97;;;5.60;99.90;;;;;;4977983;28;20311;-60
2022/01/27 01:51:11;;;;;;;40.90;19.17;;;5.70;99.90;;;;;;4966185;28;20246;-60
2022/01/27 01:53:38;;;;;;;34.27;18.43;;;5.70;99.90;;;;;;4946883;28;20219;-60
2022/01/27 01:56:06;;;;;;;35.30;19.53;;;5.60;99.90;;;;;;4972970;28;20238;-60
2022/01/27 01:58:33;;;;;;;38.30;19.50;;;5.60;99.90;;;;;;4966061;28;20207;-60
2022/01/27 02:01:00;;;;;;;37.97;19.43;;;5.60;99.90;;;;;;4969692;28;20335;-60
2022/01/27 02:03:26;;;;;;;37.27;19.60;;;5.70;99.90;;;;;;4970374;28;20247;-60
2022/01/27 02:05:57;;;;;;;34.77;19.87;;;5.60;99.90;;;;;;4954274;28;20214;-60
2022/01/27 02:19:32;;;;;;;38.80;18.67;;;5.60;99.90;;;;;;4972080;28;20243;-60
2022/01/27 02:22:02;;;;;;;38.10;18.93;;;5.70;99.90;;;;;;4972217;28;20572;-61
2022/01/27 02:24:32;;;;;;;36.70;19.03;;;5.60;99.90;;;;;;4954584;28;20200;-60
2022/01/27 02:27:01;;;;;;;37.97;18.87;;;5.60;99.90;;;;;;4967407;28;20210;-60
2022/01/27 02:29:28;;;;;;;35.30;18.93;;;5.60;99.90;;;;;;4966863;28;20208;-61
2022/01/27 02:31:58;;;;;;;31.93;18.00;;;5.60;99.90;;;;;;4971798;28;20208;-61
2022/01/27 02:34:26;;;;;;;35.63;17.80;;;5.60;99.90;;;;;;4972198;28;20200;-61
2022/01/27 02:36:53;;;;;;;39.13;18.33;;;5.60;99.90;;;;;;4963901;28;20796;-62
2022/01/27 02:39:22;;;;;;;40.80;18.43;;;5.60;99.90;;;;;;4972033;28;20295;-62
2022/01/27 02:41:56;;;;;;;35.20;18.60;;;5.60;99.90;;;;;;4971495;28;20199;-61
2022/01/27 02:44:30;;;;;;;40.47;19.57;;;5.60;99.90;;;;;;4967971;28;20203;-60
2022/01/27 02:46:57;;;;;;;35.33;18.67;;;5.60;99.90;;;;;;4965034;28;20214;-61
2022/01/27 02:49:25;;;;;;;36.47;18.77;;;5.60;99.90;;;;;;4979270;28;20287;-60
2022/01/27 02:51:52;;;;;;;34.10;18.53;;;5.60;99.90;;;;;;4965281;28;20605;-60
2022/01/27 02:54:21;;;;;;;36.07;19.30;;;5.70;99.90;;;;;;4961105;28;20218;-60
2022/01/27 02:56:48;;;;;;;33.60;17.80;;;5.70;99.90;;;;;;4973194;28;21439;-60
2022/01/27 02:59:17;;;;;;;35.23;18.67;;;5.70;99.90;;;;;;4979924;28;20201;-60
2022/01/27 03:01:46;;;;;;;32.63;18.20;;;5.60;99.90;;;;;;4960813;28;20859;-62
2022/01/27 03:04:13;;;;;;;30.43;18.90;;;5.60;99.90;;;;;;4971707;28;21078;-60
2022/01/27 03:06:40;;;;;;;33.53;17.70;;;5.70;99.90;;;;;;4965734;28;20739;-60
2022/01/27 03:09:07;;;;;;;32.10;17.67;;;5.60;99.90;;;;;;4975241;28;20195;-60
2022/01/27 03:11:39;;;;;;;28.77;17.20;;;5.60;99.90;;;;;;4956710;28;20217;-61
2022/01/27 03:14:07;;;;;;;32.93;18.57;;;5.60;99.90;;;;;;4970544;28;20263;-60
2022/01/27 03:16:35;;;;;;;34.70;18.90;;;5.70;99.90;;;;;;4954021;28;20208;-60
2022/01/27 03:19:39;;;;;;;35.57;18.53;;;5.70;99.90;;;;;;4988728;28;20223;-60
2022/01/27 03:22:07;;;;;;;33.73;16.37;;;5.70;99.90;;;;;;4980254;28;20208;-60
2022/01/27 03:24:34;;;;;;;29.63;15.73;;;5.70;99.90;;;;;;4963185;28;20292;-60
2022/01/27 03:27:06;;;;;;;34.23;17.87;;;5.70;99.90;;;;;;4953687;28;20707;-60
2022/01/27 03:29:33;;;;;;;29.07;16.73;;;5.70;99.90;;;;;;4970401;28;20767;-60
2022/01/27 03:32:01;;;;;;;31.43;18.40;;;5.70;99.90;;;;;;4965197;28;20211;-60
2022/01/27 03:34:27;;;;;;;30.93;17.87;;;5.70;99.90;;;;;;4990634;28;20291;-60
2022/01/27 03:36:55;;;;;;;31.00;17.57;;;5.70;99.90;;;;;;4978440;28;20200;-60
2022/01/27 03:39:23;;;;;;;29.73;16.73;;;5.70;99.90;;;;;;4960097;28;20208;-60
2022/01/27 03:41:51;;;;;;;27.67;16.97;;;5.70;99.90;;;;;;4959997;28;20216;-60
2022/01/27 03:44:21;;;;;;;29.33;16.80;;;5.70;99.90;;;;;;4971403;28;20199;-60
2022/01/27 03:46:49;;;;;;;31.03;17.20;;;5.70;99.90;;;;;;4980358;28;20575;-60
2022/01/27 03:49:16;;;;;;;30.17;16.07;;;5.70;99.90;;;;;;4991183;28;20220;-60
2022/01/27 03:51:46;;;;;;;34.13;18.17;;;5.70;99.90;;;;;;4998052;28;20211;-60
2022/01/27 03:54:13;;;;;;;33.70;17.67;;;5.70;99.90;;;;;;4964503;28;20215;-60
2022/01/27 03:56:40;;;;;;;28.83;17.07;;;5.70;99.90;;;;;;4984086;28;20203;-59
2022/01/27 03:59:07;;;;;;;39.37;17.10;;;5.70;99.90;;;;;;4962277;28;20624;-60
2022/01/27 04:01:36;;;;;;;30.47;17.17;;;5.70;99.90;;;;;;4980470;28;20247;-60
2022/01/27 04:04:04;;;;;;;31.87;18.00;;;5.70;99.90;;;;;;4972787;28;20210;-60
2022/01/27 04:06:36;;;;;;;32.50;17.77;;;5.60;99.90;;;;;;4988090;28;20242;-60
2022/01/27 04:09:05;;;;;;;31.63;17.50;;;5.60;99.90;;;;;;4959419;28;20199;-60
2022/01/27 04:11:32;;;;;;;38.33;17.37;;;5.60;99.90;;;;;;5009983;28;20283;-60
2022/01/27 04:14:00;;;;;;;36.43;17.73;;;5.60;99.90;;;;;;4956417;28;20235;-60
2022/01/27 04:16:27;;;;;;;35.50;18.77;;;5.60;99.90;;;;;;4978739;28;20364;-60
2022/01/27 04:18:55;;;;;;;31.97;17.97;;;5.50;99.90;;;;;;4968692;28;20227;-60
2022/01/27 04:21:22;;;;;;;29.63;17.20;;;5.60;99.90;;;;;;4976718;28;20206;-60
2022/01/27 04:23:50;;;;;;;34.73;17.37;;;5.60;99.90;;;;;;4976284;28;20225;-60
2022/01/27 04:26:21;;;;;;;37.37;18.80;;;5.60;99.90;;;;;;4968184;28;20976;-60
2022/01/27 04:28:50;;;;;;;32.20;17.90;;;5.60;99.90;;;;;;4954444;28;20238;-60
2022/01/27 04:31:17;;;;;;;35.23;18.50;;;5.60;99.90;;;;;;4963701;28;20196;-60
2022/01/27 04:33:44;;;;;;;39.53;18.60;;;5.50;99.90;;;;;;4947556;28;20208;-60
2022/01/27 04:36:19;;;;;;;31.63;18.13;;;5.50;99.90;;;;;;4968569;28;20199;-60
2022/01/27 04:38:51;;;;;;;32.53;18.20;;;5.50;99.90;;;;;;4974851;28;20241;-60
2022/01/27 04:41:24;;;;;;;31.47;18.70;;;5.50;99.90;;;;;;4955912;28;20288;-60
2022/01/27 04:43:57;;;;;;;36.63;18.30;;;5.50;99.90;;;;;;4960354;28;20779;-60
2022/01/27 04:46:32;;;;;;;32.73;18.83;;;5.50;99.90;;;;;;4971223;28;20932;-60
2022/01/27 04:49:02;;;;;;;33.13;18.93;;;5.50;99.90;;;;;;4972156;28;20256;-60
2022/01/27 04:51:31;;;;;;;35.60;19.83;;;5.50;99.90;;;;;;4969851;28;20226;-60
2022/01/27 04:54:03;;;;;;;31.57;18.60;;;5.50;99.90;;;;;;4957032;28;20215;-60
2022/01/27 04:56:32;;;;;;;36.77;18.33;;;5.50;99.90;;;;;;4956547;28;20210;-60
2022/01/27 04:59:05;;;;;;;34.73;19.77;;;5.50;99.90;;;;;;4970099;28;20226;-60
2022/01/27 05:01:36;;;;;;;35.97;17.87;;;5.50;99.90;;;;;;4959673;28;20316;-60
2022/01/27 05:04:08;;;;;;;35.50;19.47;;;5.60;99.90;;;;;;4959522;28;20204;-60
2022/01/27 05:06:36;;;;;;;35.80;19.07;;;5.50;99.90;;;;;;4987905;28;20218;-60
2022/01/27 05:09:04;;;;;;;35.63;18.67;;;5.50;99.90;;;;;;4980749;28;20200;-61
2022/01/27 05:11:34;;;;;;;32.63;20.00;;;5.50;99.90;;;;;;4966728;28;20215;-60
2022/01/27 05:14:08;;;;;;;37.83;19.80;;;5.50;99.90;;;;;;4984928;28;20234;-61
2022/01/27 05:16:35;;;;;;;34.70;18.77;;;5.50;99.90;;;;;;4949786;28;20281;-61
2022/01/27 05:19:04;;;;;;;33.33;18.53;;;5.50;99.90;;;;;;4965004;28;20231;-60
2022/01/27 05:21:31;;;;;;;35.87;18.27;;;5.50;99.90;;;;;;4965461;28;23440;-61
2022/01/27 05:24:00;;;;;;;41.13;19.03;;;5.50;99.90;;;;;;4971482;28;20824;-61
2022/01/27 05:26:27;;;;;;;34.50;18.37;;;5.50;99.90;;;;;;4957018;28;20399;-62
2022/01/27 05:28:54;;;;;;;39.90;19.70;;;5.50;99.90;;;;;;4984495;28;20231;-61
2022/01/27 05:31:21;;;;;;;33.83;19.00;;;5.50;99.90;;;;;;4955616;28;20237;-61
2022/01/27 05:33:49;;;;;;;37.07;20.33;;;5.50;99.90;;;;;;4956209;28;20217;-60
2022/01/27 05:36:15;;;;;;;34.90;17.87;;;5.50;99.90;;;;;;4966197;28;20464;-61
2022/01/27 05:38:43;;;;;;;35.20;18.17;;;5.60;99.90;;;;;;4960202;28;20233;-61
2022/01/27 05:41:15;;;;;;;31.47;18.07;;;5.50;99.90;;;;;;4964109;28;20202;-61
2022/01/27 05:43:52;;;;;;;39.50;19.40;;;5.50;99.90;;;;;;4954967;28;20208;-61
2022/01/27 05:46:19;;;;;;;42.40;19.53;;;5.50;99.90;;;;;;4962421;28;20641;-61
2022/01/27 05:48:46;;;;;;;33.27;18.20;;;5.50;99.90;;;;;;4949188;28;20225;-60
2022/01/27 05:51:13;;;;;;;34.23;18.23;;;5.50;99.90;;;;;;4953974;28;21056;-61
2022/01/27 05:53:41;;;;;;;31.63;17.43;;;5.50;99.90;;;;;;4962083;28;20239;-60
2022/01/27 05:56:08;;;;;;;32.50;18.13;;;5.60;99.90;;;;;;4978917;28;20216;-61
2022/01/27 05:58:36;;;;;;;31.30;17.70;;;5.50;99.90;;;;;;4957537;28;20730;-61
2022/01/27 06:01:03;;;;;;;34.10;17.87;;;5.50;99.90;;;;;;4970577;28;20306;-61
2022/01/27 06:03:30;;;;;;;34.93;18.60;;;5.50;99.90;;;;;;4949060;28;20215;-60
2022/01/27 06:06:00;;;;;;;38.13;18.10;;;5.50;99.90;;;;;;4960187;28;20200;-61
2022/01/27 06:08:29;;;;;;;30.73;17.77;;;5.60;99.90;;;;;;4940985;28;20230;-61
2022/01/27 06:10:57;;;;;;;35.57;19.17;;;5.60;99.90;;;;;;4962226;28;20215;-61
2022/01/27 06:13:24;;;;;;;36.07;18.90;;;5.60;99.90;;;;;;4956925;28;20630;-60
2022/01/27 06:15:52;;;;;;;34.93;18.77;;;5.60;99.90;;;;;;4965827;28;20991;-62
2022/01/27 06:18:20;;;;;;;35.50;18.03;;;5.60;99.90;;;;;;4973179;28;20227;-61
2022/01/27 06:20:47;;;;;;;36.07;18.80;;;5.60;99.90;;;;;;4949719;28;21033;-62
2022/01/27 06:23:15;;;;;;;34.47;19.60;;;5.60;99.90;;;;;;4961001;28;20258;-61
2022/01/27 06:25:42;;;;;;;34.53;17.57;;;5.60;99.90;;;;;;4973476;28;20228;-61
2022/01/27 06:28:09;;;;;;;30.17;17.10;;;5.60;99.90;;;;;;4948251;28;20227;-61
2022/01/27 06:30:36;;;;;;;33.63;17.70;;;5.70;99.90;;;;;;4964652;28;20568;-61
2022/01/27 06:33:05;;;;;;;32.60;17.13;;;5.70;99.90;;;;;;4956332;28;20776;-61
2022/01/27 06:35:33;;;;;;;29.53;17.53;;;5.70;99.90;;;;;;4961213;28;20230;-61
2022/01/27 06:38:00;;;;;;;33.10;17.63;;;5.60;99.90;;;;;;4976259;28;20841;-61
2022/01/27 06:40:27;;;;;;;26.53;16.13;;;5.70;99.90;;;;;;4963726;28;20215;-62
2022/01/27 06:42:54;;;;;;;32.50;16.17;;;5.70;99.90;;;;;;4987710;28;20204;-61
2022/01/27 06:45:22;;;;;;;28.47;15.70;;;5.70;99.90;;;;;;4979662;28;20200;-61
2022/01/27 06:47:49;;;;;;;28.00;16.33;;;5.70;99.90;;;;;;4969558;28;20323;-62
2022/01/27 06:50:18;;;;;;;28.67;16.30;;;5.70;99.90;;;;;;4967620;28;20227;-60
2022/01/27 06:52:45;;;;;;;31.50;16.60;;;5.70;99.90;;;;;;4949797;28;20199;-60
2022/01/27 06:55:13;;;;;;;28.97;16.10;;;5.70;99.90;;;;;;4978711;28;20212;-61
2022/01/27 06:57:40;;;;;;;32.17;16.67;;;5.70;99.90;;;;;;4969530;28;20299;-61
2022/01/27 07:00:09;;;;;;;32.60;16.73;;;5.70;99.90;;;;;;4969053;28;20310;-61
2022/01/27 07:02:36;;;;;;;34.47;16.23;;;5.70;99.90;;;;;;4967090;28;20210;-61
2022/01/27 07:05:04;;;;;;;32.27;15.93;;;5.70;99.90;;;;;;4987156;28;20209;-61
2022/01/27 07:07:32;;;;;;;28.60;16.03;;;5.70;99.90;;;;;;4945774;28;20235;-61
2022/01/27 07:10:01;;;;;;;26.80;14.77;;;5.70;99.90;;;;;;4981110;28;20199;-61
2022/01/27 07:12:28;;;;;;;27.33;15.73;;;5.70;99.90;;;;;;4969270;28;20232;-61
2022/01/27 07:14:56;;;;;;;29.03;16.40;;;5.80;99.90;;;;;;4942725;28;20235;-62
2022/01/27 07:17:22;;;;;;;26.43;15.30;;;5.70;99.90;;;;;;4966433;28;20230;-61
2022/01/27 07:19:50;;;;;;;29.33;16.13;;;5.80;99.90;;;;;;4961310;28;20308;-61
2022/01/27 07:22:17;;;;;;;25.27;13.93;;;5.70;99.90;;;;;;4964301;28;20207;-62
2022/01/27 07:24:45;;;;;;;26.73;13.90;;;5.80;99.90;;;;;;4978162;28;20212;-61
2022/01/27 07:27:13;;;;;;;26.10;13.80;;;5.80;99.90;;;;;;4972739;28;20210;-61
2022/01/27 07:29:40;;;;;;;23.63;13.80;;;5.80;99.90;;;;;;4958340;28;20223;-61
2022/01/27 07:32:08;;;;;;;21.67;11.97;;;5.80;99.90;;;;;;4964773;28;20208;-61
2022/01/27 07:34:35;;;;;;;25.00;13.67;;;5.80;99.90;;;;;;4960602;28;21209;-61
2022/01/27 07:37:03;;;;;;;23.77;13.47;;;5.80;99.90;;;;;;4978250;28;20192;-61
2022/01/27 07:39:30;;;;;;;23.40;13.27;;;5.80;99.90;;;;;;4969365;28;20243;-61
2022/01/27 07:42:00;;;;;;;22.63;13.00;;;5.90;99.90;;;;;;4969675;28;20208;-61
2022/01/27 07:44:27;;;;;;;22.07;13.63;;;5.90;99.90;;;;;;4963514;28;20203;-61
2022/01/27 07:46:55;;;;;;;20.50;12.90;;;5.90;99.90;;;;;;4957488;28;20685;-63
2022/01/27 07:49:22;;;;;;;21.93;13.17;;;5.90;99.90;;;;;;4956770;28;20205;-62
2022/01/27 07:51:49;;;;;;;25.00;13.13;;;6.00;99.90;;;;;;4965324;28;20232;-62
2022/01/27 07:54:16;;;;;;;20.33;12.70;;;6.00;99.90;;;;;;4945034;28;20204;-61
2022/01/27 07:56:43;;;;;;;21.07;13.10;;;6.00;99.90;;;;;;4962861;28;20212;-61
2022/01/27 07:59:12;;;;;;;19.30;12.20;;;5.90;99.90;;;;;;4977216;28;20231;-61
2022/01/27 08:01:39;;;;;;;19.33;10.87;;;6.00;99.90;;;;;;4964129;28;24012;-62
2022/01/27 08:04:06;;;;;;;18.30;11.27;;;6.00;99.90;;;;;;4986726;28;20666;-61
2022/01/27 08:06:33;;;;;;;19.10;11.83;;;6.00;99.90;;;;;;4952381;28;20212;-61
2022/01/27 08:09:00;;;;;;;19.70;11.30;;;6.00;99.90;;;;;;4990806;28;20692;-62
2022/01/27 08:11:27;;;;;;;19.43;12.00;;;6.10;99.90;;;;;;4949059;28;20222;-61
2022/01/27 08:13:54;;;;;;;18.60;10.47;;;6.10;99.90;;;;;;4973980;28;20300;-61
2022/01/27 08:16:22;;;;;;;16.43;9.63;;;6.10;99.90;;;;;;4942556;28;20436;-60
2022/01/27 08:18:50;;;;;;;16.03;10.10;;;6.10;99.90;;;;;;4960840;28;20229;-61
2022/01/27 08:21:17;;;;;;;16.60;10.23;;;6.10;99.90;;;;;;4964057;28;20218;-61
2022/01/27 08:23:45;;;;;;;15.23;10.20;;;6.20;99.90;;;;;;4982992;28;20781;-60
2022/01/27 08:26:14;;;;;;;16.10;9.43;;;6.20;99.90;;;;;;4944973;28;20211;-61
2022/01/27 08:28:46;;;;;;;15.93;9.20;;;6.20;99.90;;;;;;4971912;28;20215;-62
2022/01/27 08:31:14;;;;;;;16.20;9.03;;;6.30;99.90;;;;;;4962786;28;20204;-61
2022/01/27 08:33:43;;;;;;;12.67;7.90;;;6.20;99.90;;;;;;4975257;28;20219;-62
2022/01/27 08:36:10;;;;;;;14.93;8.73;;;6.30;99.90;;;;;;4971399;28;20231;-61
2022/01/27 08:38:43;;;;;;;15.17;8.80;;;6.30;99.90;;;;;;4966193;28;20272;-61
2022/01/27 08:41:10;;;;;;;12.67;7.83;;;6.30;99.90;;;;;;4957353;28;20306;-62
2022/01/27 08:43:37;;;;;;;12.53;8.30;;;6.30;99.90;;;;;;4978703;28;20299;-61
2022/01/27 08:46:04;;;;;;;10.40;7.60;;;6.40;99.90;;;;;;4965777;28;20239;-61
2022/01/27 08:48:32;;;;;;;12.93;8.00;;;6.50;99.90;;;;;;4958174;28;21179;-61
2022/01/27 08:51:01;;;;;;;13.03;7.77;;;6.50;99.90;;;;;;4980271;28;20226;-62
2022/01/27 08:53:30;;;;;;;14.40;7.93;;;6.50;99.90;;;;;;4967637;28;20332;-63
2022/01/27 08:55:57;;;;;;;11.83;7.80;;;6.50;99.90;;;;;;4986048;28;20227;-62
2022/01/27 08:58:25;;;;;;;11.27;7.43;;;6.50;99.90;;;;;;4945617;28;20216;-62
2022/01/27 09:00:53;;;;;;;12.13;7.40;;;6.60;99.90;;;;;;4972540;28;20208;-61
2022/01/27 09:03:21;;;;;;;10.93;7.47;;;6.60;99.90;;;;;;4953975;28;20214;-61
2022/01/27 09:05:48;;;;;;;10.63;7.50;;;6.60;99.90;;;;;;4965864;28;20219;-61
2022/01/27 09:08:17;;;;;;;13.70;7.70;;;6.70;99.90;;;;;;4977894;28;21066;-62
2022/01/27 09:10:46;;;;;;;10.27;6.87;;;6.70;99.90;;;;;;4960943;28;20760;-62
2022/01/27 09:13:14;;;;;;;12.20;7.13;;;6.70;99.90;;;;;;4919489;28;20549;-61
2022/01/27 09:15:43;;;;;;;13.80;8.07;;;6.70;99.90;;;;;;4951275;28;20208;-61
2022/01/27 09:18:11;;;;;;;11.33;8.07;;;6.70;99.90;;;;;;4943654;28;24124;-61
2022/01/27 09:20:39;;;;;;;13.47;7.70;;;6.70;99.90;;;;;;4954454;28;20231;-61
2022/01/27 09:23:12;;;;;;;11.50;7.20;;;6.80;99.90;;;;;;4977465;28;20227;-61
2022/01/27 09:25:43;;;;;;;12.57;7.17;;;6.80;99.90;;;;;;4974869;28;20207;-61
2022/01/27 09:28:11;;;;;;;11.60;6.97;;;6.90;99.90;;;;;;4952018;28;20305;-62
2022/01/27 09:30:38;;;;;;;10.17;6.90;;;6.90;99.90;;;;;;4955430;28;20215;-62
2022/01/27 09:33:05;;;;;;;15.40;7.57;;;6.90;99.90;;;;;;4972166;28;20202;-63
2022/01/27 09:35:32;;;;;;;10.70;6.97;;;6.90;99.90;;;;;;4955113;28;20396;-63
2022/01/27 09:38:00;;;;;;;11.03;6.53;;;7.00;99.90;;;;;;4956452;28;20214;-62
2022/01/27 09:40:28;;;;;;;11.10;7.00;;;7.00;99.90;;;;;;5003803;28;20225;-62
2022/01/27 09:42:57;;;;;;;12.03;6.60;;;7.00;99.90;;;;;;4955048;28;20217;-62
2022/01/27 09:45:24;;;;;;;11.23;6.70;;;7.00;99.90;;;;;;4958359;28;20203;-61
2022/01/27 09:47:57;;;;;;;9.63;6.87;;;7.10;99.90;;;;;;4959862;28;20542;-61
2022/01/27 09:50:35;;;;;;;9.20;6.03;;;7.10;99.90;;;;;;4939027;28;20686;-62
2022/01/27 09:53:03;;;;;;;8.23;5.90;;;7.10;99.90;;;;;;4976289;28;20226;-62
2022/01/27 09:55:30;;;;;;;11.10;6.60;;;7.10;99.90;;;;;;4975880;28;20241;-62
2022/01/27 09:58:01;;;;;;;10.87;6.50;;;7.10;99.90;;;;;;4948106;28;20314;-62
2022/01/27 10:00:28;;;;;;;9.10;5.80;;;7.20;99.90;;;;;;4990799;28;20309;-61
2022/01/27 10:03:10;;;;;;;8.07;5.97;;;7.20;99.90;;;;;;4989303;28;20203;-62
2022/01/27 10:05:38;;;;;;;12.23;6.60;;;7.20;99.90;;;;;;4958477;28;20253;-62
2022/01/27 10:08:10;;;;;;;13.00;7.03;;;7.20;99.90;;;;;;4958900;28;20215;-61
2022/01/27 10:10:39;;;;;;;11.33;6.70;;;7.20;99.90;;;;;;4973042;28;20214;-62
2022/01/27 10:13:08;;;;;;;13.83;7.40;;;7.20;99.90;;;;;;4963319;28;20671;-62
2022/01/27 10:15:40;;;;;;;11.30;7.47;;;7.30;99.90;;;;;;4948477;28;20215;-63
2022/01/27 10:18:11;;;;;;;13.97;7.67;;;7.30;99.90;;;;;;4965005;28;20645;-62
2022/01/27 10:20:40;;;;;;;16.67;8.23;;;7.40;99.90;;;;;;4968038;28;20317;-62
2022/01/27 10:23:13;;;;;;;13.07;7.17;;;7.40;99.90;;;;;;4969298;28;20211;-62
2022/01/27 10:25:46;;;;;;;21.27;7.63;;;7.40;99.90;;;;;;4973482;28;20202;-61
2022/01/27 10:28:40;;;;;;;19.27;8.03;;;7.50;99.90;;;;;;4963357;28;20268;-62
2022/01/27 10:31:11;;;;;;;11.57;7.50;;;7.50;99.90;;;;;;4945293;28;20221;-61
2022/01/27 10:33:47;;;;;;;15.40;7.97;;;7.50;99.90;;;;;;4977321;28;20582;-61
2022/01/27 10:36:25;;;;;;;21.20;8.00;;;7.60;99.90;;;;;;4979065;28;20289;-62
2022/01/27 10:38:53;;;;;;;13.50;6.93;;;7.60;99.90;;;;;;4972813;28;20280;-62
2022/01/27 10:41:21;;;;;;;16.43;7.43;;;7.60;99.90;;;;;;5012987;28;20208;-62
2022/01/27 10:43:50;;;;;;;17.13;7.10;;;7.70;99.90;;;;;;4999097;28;20196;-62
2022/01/27 10:46:23;;;;;;;18.60;7.70;;;7.70;99.90;;;;;;4953968;28;20204;-61
2022/01/27 10:48:56;;;;;;;23.03;7.67;;;7.80;99.90;;;;;;4962165;28;20268;-61
2022/01/27 10:51:26;;;;;;;15.30;6.33;;;7.80;99.90;;;;;;4970142;28;20687;-63
2022/01/27 10:54:00;;;;;;;20.53;7.20;;;7.90;99.90;;;;;;4965816;28;20361;-63
2022/01/27 10:56:29;;;;;;;19.67;6.70;;;8.00;99.90;;;;;;4976178;28;20261;-63
2022/01/27 10:58:59;;;;;;;18.50;7.10;;;8.10;99.90;;;;;;4984601;28;20644;-63
2022/01/27 11:01:31;;;;;;;18.00;6.10;;;8.20;99.90;;;;;;4956791;28;20212;-63
2022/01/27 11:04:01;;;;;;;24.53;6.03;;;8.10;99.90;;;;;;4970977;28;20698;-64
2022/01/27 11:06:31;;;;;;;13.43;5.10;;;8.30;99.90;;;;;;4981231;28;20211;-61
2022/01/27 11:09:00;;;;;;;10.93;4.87;;;8.40;99.90;;;;;;4971637;28;20218;-64
2022/01/27 11:11:27;;;;;;;19.90;4.83;;;8.40;99.90;;;;;;4979145;28;20570;-62
2022/01/27 11:13:59;;;;;;;19.00;5.53;;;8.40;99.90;;;;;;4976123;28;20230;-62
2022/01/27 11:16:33;;;;;;;16.33;5.67;;;8.40;99.90;;;;;;4983013;28;20206;-63
2022/01/27 11:19:14;;;;;;;18.50;6.13;;;8.50;99.90;;;;;;4940106;28;20819;-63
2022/01/27 11:21:45;;;;;;;11.90;5.20;;;8.60;99.90;;;;;;4957339;28;20614;-63
2022/01/27 11:24:23;;;;;;;19.20;4.50;;;8.60;99.90;;;;;;4954874;28;20208;-64
2022/01/27 11:26:54;;;;;;;18.63;4.97;;;8.60;99.90;;;;;;4980112;28;20200;-64
2022/01/27 11:29:25;;;;;;;14.70;5.47;;;8.60;99.90;;;;;;4966937;28;20203;-64
2022/01/27 11:32:08;;;;;;;16.40;4.17;;;8.60;99.90;;;;;;4986987;28;20207;-64
2022/01/27 11:34:45;;;;;;;18.13;4.80;;;8.60;99.90;;;;;;4945345;28;20219;-64
2022/01/27 11:37:16;;;;;;;21.30;5.10;;;8.70;99.90;;;;;;4965675;28;20605;-63
2022/01/27 11:39:54;;;;;;;23.73;5.70;;;8.70;99.90;;;;;;4959880;28;23912;-64
2022/01/27 11:42:37;;;;;;;17.37;4.27;;;8.70;99.90;;;;;;4981510;28;20203;-64
2022/01/27 11:45:26;;;;;;;18.90;5.30;;;8.70;99.90;;;;;;4972166;28;20231;-64
2022/01/27 11:47:56;;;;;;;21.80;5.00;;;8.70;99.90;;;;;;4964727;28;21062;-64
2022/01/27 11:50:32;;;;;;;14.20;4.47;;;8.80;99.90;;;;;;4960879;28;20322;-64
2022/01/27 11:53:00;;;;;;;13.27;3.30;;;8.90;99.90;;;;;;4963016;28;20312;-64
2022/01/27 11:55:45;;;;;;;19.93;3.93;;;8.90;99.90;;;;;;4952868;28;20201;-63
2022/01/27 11:58:18;;;;;;;17.30;4.07;;;8.80;99.90;;;;;;4977604;28;20207;-64
2022/01/27 12:01:21;;;;;;;18.03;4.10;;;8.90;99.90;;;;;;4979044;28;20258;-62
2022/01/27 12:04:15;;;;;;;21.03;4.10;;;8.90;99.90;;;;;;4955174;28;25538;-63
2022/01/27 12:06:58;;;;;;;18.60;4.40;;;8.90;99.90;;;;;;4956743;28;20227;-62
2022/01/27 12:09:32;;;;;;;23.37;4.30;;;8.90;99.90;;;;;;4957485;28;20207;-62
2022/01/27 12:12:00;;;;;;;26.43;4.07;;;8.90;99.90;;;;;;4968253;28;20223;-62
2022/01/27 12:14:49;;;;;;;22.37;3.90;;;8.80;99.90;;;;;;4973839;28;20553;-62
2022/01/27 12:17:27;;;;;;;24.67;5.50;;;8.90;99.90;;;;;;4979591;28;21078;-62
2022/01/27 12:19:57;;;;;;;16.30;3.93;;;8.90;99.90;;;;;;4962394;28;20288;-62
2022/01/27 12:22:28;;;;;;;14.80;3.17;;;8.80;99.90;;;;;;4980663;28;20253;-62
2022/01/27 12:24:56;;;;;;;17.70;3.87;;;8.80;99.90;;;;;;4968904;28;20200;-62
2022/01/27 12:27:24;;;;;;;18.83;3.70;;;8.80;99.90;;;;;;4965669;28;20207;-62
2022/01/27 12:29:53;;;;;;;19.97;4.10;;;8.80;99.90;;;;;;4968541;28;20320;-62
2022/01/27 12:32:22;;;;;;;18.87;3.40;;;8.90;99.90;;;;;;4974631;28;20199;-62
2022/01/27 12:34:53;;;;;;;17.37;4.20;;;8.90;99.90;;;;;;4957503;28;20216;-61
2022/01/27 12:37:23;;;;;;;19.00;3.80;;;9.00;99.90;;;;;;4973945;28;20206;-63
2022/01/27 12:39:55;;;;;;;19.73;3.70;;;8.90;99.90;;;;;;4980096;23;20251;-64
2022/01/27 12:42:27;;;;;;;20.60;3.93;;;8.80;99.90;;;;;;4956160;28;20593;-63
2022/01/27 12:44:57;;;;;;;22.70;3.53;;;8.80;99.90;;;;;;4970478;28;20625;-63
2022/01/27 12:47:25;;;;;;;25.23;3.63;;;8.80;99.90;;;;;;4959338;28;20258;-63
2022/01/27 12:50:03;;;;;;;16.10;3.43;;;8.90;99.90;;;;;;4961424;28;20213;-63
2022/01/27 12:52:34;;;;;;;21.83;3.73;;;9.00;99.90;;;;;;4972034;28;20211;-63
2022/01/27 12:55:00;;;;;;;18.40;4.63;;;9.00;99.90;;;;;;4980512;28;20327;-63
2022/01/27 12:57:30;;;;;;;15.80;4.30;;;8.90;99.90;;;;;;4950201;28;20853;-63
2022/01/27 12:59:58;;;;;;;16.63;3.10;;;8.80;99.90;;;;;;4962324;28;20330;-63
2022/01/27 13:02:27;;;;;;;19.37;3.60;;;8.80;99.90;;;;;;4949069;28;20237;-62
2022/01/27 13:04:58;;;;;;;17.67;3.47;;;8.80;99.90;;;;;;4960563;28;20364;-63
2022/01/27 13:07:27;;;;;;;15.30;3.60;;;8.80;99.90;;;;;;4943229;28;20234;-62
2022/01/27 13:09:56;;;;;;;13.67;4.03;;;8.70;99.90;;;;;;4977588;28;20215;-62
2022/01/27 13:12:28;;;;;;;19.07;3.43;;;8.60;99.90;;;;;;4962705;28;20255;-62
2022/01/27 13:15:09;;;;;;;15.17;3.00;;;8.70;99.90;;;;;;4957470;28;20227;-62
2022/01/27 13:17:44;;;;;;;13.90;3.07;;;8.60;99.90;;;;;;4974443;28;20505;-62
2022/01/27 13:20:19;;;;;;;14.93;2.87;;;8.60;99.90;;;;;;4964703;28;20223;-63
2022/01/27 13:23:01;;;;;;;20.60;3.17;;;8.60;99.90;;;;;;4949209;28;20211;-63